Time;durP1;ratioP1;P1;durP2;ratioP2;P2;SDS_P1;SDS_P2;PMS_P1;PMS_P2;Temp;Humidity;BMP_temperature;BMP_pressure;BME280_temperature;BME280_humidity;BME280_pressure;Samples;Min_cycle;Max_cycle;Signal;HPM_P1;HPM_P2
2023/12/13 00:02:17;;;;;;;9.87;7.23;;;6.60;99.90;;;;;;5011380;28;20191;-58
2023/12/13 00:04:43;;;;;;;15.67;8.63;;;6.40;99.90;;;;;;5011221;28;20195;-53
2023/12/13 00:07:08;;;;;;;13.90;8.80;;;6.30;99.90;;;;;;5011038;28;20207;-60
2023/12/13 00:09:34;;;;;;;13.40;8.70;;;6.30;99.90;;;;;;5011020;28;20861;-54
2023/12/13 00:12:00;;;;;;;12.53;9.33;;;6.30;99.90;;;;;;5008369;28;20618;-56
2023/12/13 00:14:25;;;;;;;14.10;9.23;;;6.40;99.90;;;;;;5008900;28;20248;-66
2023/12/13 00:16:51;;;;;;;13.53;9.03;;;6.20;99.90;;;;;;5007179;28;20219;-59
2023/12/13 00:19:16;;;;;;;11.67;10.00;;;6.30;99.90;;;;;;5003771;28;20594;-59
2023/12/13 00:21:43;;;;;;;12.10;9.60;;;6.30;99.90;;;;;;5011566;28;20223;-64
2023/12/13 00:24:08;;;;;;;12.33;9.37;;;6.30;99.90;;;;;;5014987;28;20243;-59
2023/12/13 00:26:35;;;;;;;12.50;11.20;;;6.20;99.90;;;;;;5016792;28;20192;-55
2023/12/13 00:29:00;;;;;;;14.00;10.50;;;6.10;99.90;;;;;;5015957;28;20700;-54
2023/12/13 00:31:26;;;;;;;18.07;11.37;;;6.00;99.90;;;;;;5014857;28;20208;-54
2023/12/13 00:33:52;;;;;;;16.17;11.03;;;5.80;99.90;;;;;;4993044;28;20237;-54
2023/12/13 00:36:17;;;;;;;14.20;12.33;;;5.80;99.90;;;;;;5014849;28;20725;-56
2023/12/13 00:38:43;;;;;;;16.73;11.37;;;5.90;99.90;;;;;;5014562;28;20206;-59
2023/12/13 00:41:08;;;;;;;15.73;12.60;;;5.90;99.90;;;;;;5010952;28;20776;-63
2023/12/13 00:43:33;;;;;;;16.10;12.60;;;5.90;99.90;;;;;;5006814;28;20204;-64
2023/12/13 00:45:59;;;;;;;18.03;12.00;;;5.80;99.90;;;;;;5006282;28;20391;-62
2023/12/13 00:48:24;;;;;;;21.53;13.27;;;5.60;99.90;;;;;;5008385;28;20226;-62
2023/12/13 00:50:50;;;;;;;21.33;13.30;;;5.60;99.90;;;;;;5006408;28;20227;-62
2023/12/13 00:53:15;;;;;;;16.73;12.57;;;5.60;99.90;;;;;;5012771;28;20584;-57
2023/12/13 00:55:41;;;;;;;20.70;14.03;;;5.70;99.90;;;;;;5010398;28;20677;-54
2023/12/13 00:58:07;;;;;;;14.70;11.60;;;5.70;99.90;;;;;;5014583;28;20736;-54
2023/12/13 01:00:33;;;;;;;20.10;12.53;;;5.70;99.90;;;;;;5014262;28;20674;-59
2023/12/13 01:02:58;;;;;;;18.00;12.87;;;5.70;99.90;;;;;;4996450;28;20246;-65
2023/12/13 01:05:24;;;;;;;17.87;12.63;;;5.70;99.90;;;;;;4992151;28;20916;-56
2023/12/13 01:07:49;;;;;;;18.13;13.90;;;5.70;99.90;;;;;;5014042;28;20290;-56
2023/12/13 01:10:15;;;;;;;21.53;13.30;;;5.60;99.90;;;;;;5016355;28;20223;-55
2023/12/13 01:12:43;;;;;;;19.33;14.03;;;5.50;99.90;;;;;;5014333;28;20196;-56
2023/12/13 01:15:12;;;;;;;24.10;14.03;;;5.40;99.90;;;;;;5014159;28;20295;-56
2023/12/13 01:17:38;;;;;;;20.83;15.43;;;5.50;99.90;;;;;;5014358;28;23278;-56
2023/12/13 01:20:09;;;;;;;19.27;14.00;;;5.50;99.90;;;;;;5014331;28;20221;-55
2023/12/13 01:22:35;;;;;;;20.37;14.43;;;5.70;99.90;;;;;;5016687;28;20191;-56
2023/12/13 01:25:02;;;;;;;21.30;14.87;;;5.60;99.90;;;;;;5013967;28;20207;-55
2023/12/13 01:27:28;;;;;;;18.30;12.70;;;5.70;99.90;;;;;;5013805;28;20196;-55
2023/12/13 01:29:54;;;;;;;19.13;14.00;;;5.70;99.90;;;;;;5017516;28;20233;-54
2023/12/13 01:32:19;;;;;;;25.07;14.87;;;5.70;99.90;;;;;;5015731;28;20210;-55
2023/12/13 01:34:45;;;;;;;19.57;14.27;;;5.70;99.90;;;;;;5013141;28;20229;-54
2023/12/13 01:37:11;;;;;;;20.63;15.50;;;5.80;99.90;;;;;;5013347;28;20227;-65
2023/12/13 01:39:37;;;;;;;26.90;14.90;;;5.80;99.90;;;;;;4995571;28;20199;-55
2023/12/13 01:42:03;;;;;;;21.10;14.03;;;5.90;99.90;;;;;;5013189;28;20579;-69
2023/12/13 01:44:29;;;;;;;17.53;13.70;;;5.80;99.90;;;;;;4987622;28;20204;-55
2023/12/13 01:46:54;;;;;;;19.07;14.83;;;5.80;99.90;;;;;;5013490;28;20221;-54
2023/12/13 01:49:20;;;;;;;18.07;13.97;;;5.90;99.90;;;;;;5015207;28;20313;-54
2023/12/13 01:51:46;;;;;;;18.13;14.13;;;6.00;99.90;;;;;;5013748;28;20698;-55
2023/12/13 01:54:15;;;;;;;19.03;13.70;;;6.00;99.90;;;;;;5013031;28;20418;-55
2023/12/13 01:56:43;;;;;;;17.80;13.37;;;6.10;99.90;;;;;;5013608;28;20297;-53
2023/12/13 01:59:09;;;;;;;15.97;13.33;;;6.00;99.90;;;;;;5013414;28;20269;-54
2023/12/13 02:01:36;;;;;;;18.50;14.17;;;5.90;99.90;;;;;;5013825;28;20210;-55
2023/12/13 02:04:05;;;;;;;15.87;13.40;;;5.90;99.90;;;;;;5013756;28;20199;-54
2023/12/13 02:06:30;;;;;;;19.03;14.63;;;5.90;99.90;;;;;;5013085;28;20600;-55
2023/12/13 02:08:56;;;;;;;18.80;12.63;;;5.90;99.90;;;;;;5014613;28;20238;-56
2023/12/13 02:11:22;;;;;;;19.07;14.53;;;5.80;99.90;;;;;;5009052;28;20207;-64
2023/12/13 02:13:48;;;;;;;16.10;12.87;;;5.70;99.90;;;;;;5013125;28;20672;-55
2023/12/13 02:16:13;;;;;;;19.80;13.37;;;5.80;99.90;;;;;;5012599;28;20196;-55
2023/12/13 02:18:39;;;;;;;19.07;12.63;;;5.90;99.90;;;;;;5013300;28;20195;-55
2023/12/13 02:21:06;;;;;;;16.67;13.13;;;5.90;99.90;;;;;;5011523;28;20223;-55
2023/12/13 02:23:31;;;;;;;23.50;15.13;;;5.70;99.90;;;;;;4991167;28;20203;-54
2023/12/13 02:25:59;;;;;;;19.87;13.63;;;5.60;99.90;;;;;;5012999;28;20627;-54
2023/12/13 02:28:26;;;;;;;17.63;13.20;;;5.60;99.90;;;;;;5012181;28;20237;-54
2023/12/13 02:30:54;;;;;;;22.63;13.93;;;5.50;99.90;;;;;;5012758;28;20225;-54
2023/12/13 02:33:23;;;;;;;17.57;13.77;;;5.40;99.90;;;;;;5013278;28;20712;-54
2023/12/13 02:35:49;;;;;;;19.20;13.47;;;5.50;99.90;;;;;;5011477;28;20590;-55
2023/12/13 02:38:14;;;;;;;16.40;11.10;;;5.50;99.90;;;;;;5011271;28;20674;-55
2023/12/13 02:40:40;;;;;;;16.67;12.97;;;5.50;99.90;;;;;;5012922;28;20207;-56
2023/12/13 02:43:05;;;;;;;16.40;13.23;;;5.40;99.90;;;;;;5012376;28;20280;-56
2023/12/13 02:45:31;;;;;;;17.40;12.27;;;5.40;99.90;;;;;;5010064;28;20199;-55
2023/12/13 02:47:59;;;;;;;18.10;13.30;;;5.50;99.90;;;;;;5006261;28;20195;-55
2023/12/13 02:50:25;;;;;;;17.13;13.17;;;5.60;99.90;;;;;;5011743;28;20219;-54
2023/12/13 02:52:50;;;;;;;21.10;13.97;;;5.70;99.90;;;;;;5011980;28;20218;-54
2023/12/13 02:55:16;;;;;;;17.17;12.83;;;5.80;99.90;;;;;;5012636;28;20218;-56
2023/12/13 02:57:41;;;;;;;15.87;12.60;;;5.80;99.90;;;;;;4986395;28;20256;-55
2023/12/13 03:00:08;;;;;;;16.40;12.63;;;5.90;99.90;;;;;;5013957;28;20287;-55
2023/12/13 03:02:34;;;;;;;18.63;13.03;;;5.90;99.90;;;;;;5010535;28;20299;-54
2023/12/13 03:05:01;;;;;;;18.20;12.53;;;5.90;99.90;;;;;;5012131;28;20211;-55
2023/12/13 03:07:27;;;;;;;19.97;13.07;;;5.90;99.90;;;;;;5011792;28;20195;-54
2023/12/13 03:09:53;;;;;;;18.13;13.33;;;5.90;99.90;;;;;;5011742;28;20226;-55
2023/12/13 03:12:18;;;;;;;19.07;13.13;;;5.90;99.90;;;;;;5012482;28;20204;-55
2023/12/13 03:14:44;;;;;;;15.70;12.33;;;5.90;99.90;;;;;;5011799;28;20555;-55
2023/12/13 03:17:09;;;;;;;17.87;12.50;;;6.00;99.90;;;;;;5013121;28;20214;-55
2023/12/13 03:19:35;;;;;;;21.77;12.53;;;6.00;99.90;;;;;;5011784;28;20199;-55
2023/12/13 03:22:00;;;;;;;17.57;12.60;;;5.90;99.90;;;;;;5011622;28;20206;-55
2023/12/13 03:24:25;;;;;;;17.77;12.57;;;5.90;99.90;;;;;;5011594;28;20206;-55
2023/12/13 03:26:51;;;;;;;22.07;12.50;;;5.80;99.90;;;;;;5011193;28;20234;-54
2023/12/13 03:29:17;;;;;;;18.00;12.67;;;5.80;99.90;;;;;;5011905;28;20227;-55
2023/12/13 03:31:43;;;;;;;15.83;12.13;;;5.70;99.90;;;;;;4998984;28;20266;-55
2023/12/13 03:34:08;;;;;;;14.50;12.00;;;5.70;99.90;;;;;;5012745;28;20613;-55
2023/12/13 03:36:34;;;;;;;18.60;12.83;;;5.80;99.90;;;;;;5011364;28;20192;-55
2023/12/13 03:38:59;;;;;;;16.30;12.30;;;5.70;99.90;;;;;;5010979;28;20204;-55
2023/12/13 03:41:25;;;;;;;22.07;13.17;;;5.70;99.90;;;;;;5011097;28;20340;-55
2023/12/13 03:43:50;;;;;;;14.97;12.80;;;5.80;99.90;;;;;;5009008;28;20218;-55
2023/12/13 03:46:16;;;;;;;17.40;13.60;;;5.80;99.90;;;;;;5013131;28;20278;-55
2023/12/13 03:48:42;;;;;;;18.93;14.27;;;5.80;99.90;;;;;;5011566;28;20196;-54
2023/12/13 03:51:07;;;;;;;19.07;11.63;;;5.80;99.90;;;;;;5010857;28;20309;-55
2023/12/13 03:53:33;;;;;;;17.00;12.77;;;5.80;99.90;;;;;;5010885;28;20210;-55
2023/12/13 03:55:59;;;;;;;16.17;12.67;;;5.90;99.90;;;;;;5010888;28;20199;-55
2023/12/13 03:58:25;;;;;;;16.00;11.97;;;5.80;99.90;;;;;;5010436;28;20572;-55
2023/12/13 04:00:51;;;;;;;17.17;12.80;;;5.80;99.90;;;;;;5013317;28;20217;-55
2023/12/13 04:03:17;;;;;;;20.53;13.07;;;5.80;99.90;;;;;;5011453;28;21102;-55
2023/12/13 04:05:42;;;;;;;18.33;12.73;;;5.80;99.90;;;;;;5011180;28;20836;-54
2023/12/13 04:08:08;;;;;;;16.90;13.00;;;5.80;99.90;;;;;;5010834;28;20227;-55
2023/12/13 04:10:34;;;;;;;16.27;13.63;;;5.80;99.90;;;;;;4992871;28;20227;-55
2023/12/13 04:12:59;;;;;;;18.77;13.43;;;5.70;99.90;;;;;;5010729;28;20222;-55
2023/12/13 04:15:25;;;;;;;17.33;13.00;;;5.70;99.90;;;;;;5009728;28;20211;-55
2023/12/13 04:17:50;;;;;;;17.53;12.47;;;5.90;99.90;;;;;;5012989;28;20274;-55
2023/12/13 04:20:16;;;;;;;17.80;13.13;;;5.80;99.90;;;;;;4989207;28;20606;-55
2023/12/13 04:22:42;;;;;;;18.93;13.33;;;5.90;99.90;;;;;;5010432;28;20211;-55
2023/12/13 04:25:08;;;;;;;18.47;13.77;;;5.90;99.90;;;;;;5010639;28;20278;-55
2023/12/13 04:27:34;;;;;;;17.43;12.97;;;6.00;99.90;;;;;;5010888;28;20738;-55
2023/12/13 04:29:59;;;;;;;20.40;13.47;;;5.90;99.90;;;;;;4988795;28;20218;-55
2023/12/13 04:32:26;;;;;;;18.83;12.20;;;5.90;99.90;;;;;;5012707;28;20226;-55
2023/12/13 04:34:51;;;;;;;19.63;12.63;;;6.00;99.90;;;;;;5010428;28;20282;-55
2023/12/13 04:37:17;;;;;;;15.87;12.37;;;5.90;99.90;;;;;;5010631;28;20788;-55
2023/12/13 04:39:42;;;;;;;22.20;12.30;;;5.90;99.90;;;;;;4992893;28;20203;-59
2023/12/13 04:42:08;;;;;;;17.37;12.70;;;5.90;99.90;;;;;;5010000;28;20211;-55
2023/12/13 04:44:33;;;;;;;19.63;12.40;;;5.90;99.90;;;;;;4991221;28;20293;-54
2023/12/13 04:46:59;;;;;;;19.33;13.03;;;5.90;99.90;;;;;;5010345;28;20284;-53
2023/12/13 04:49:25;;;;;;;21.00;13.07;;;6.00;99.90;;;;;;5012599;28;20233;-55
2023/12/13 04:51:50;;;;;;;16.60;12.07;;;6.10;99.90;;;;;;5010649;28;20219;-68
2023/12/13 04:54:16;;;;;;;15.03;12.37;;;6.10;99.90;;;;;;4993235;28;20257;-55
2023/12/13 04:56:41;;;;;;;20.17;13.03;;;6.00;99.90;;;;;;5010658;28;20211;-55
2023/12/13 04:59:07;;;;;;;20.40;14.30;;;6.00;99.90;;;;;;4992841;28;20569;-53
2023/12/13 05:01:33;;;;;;;21.43;13.30;;;6.00;99.90;;;;;;5011788;28;20221;-54
2023/12/13 05:03:58;;;;;;;18.50;14.47;;;6.00;99.90;;;;;;5012492;28;20196;-55
2023/12/13 05:06:24;;;;;;;19.77;14.37;;;6.00;99.90;;;;;;5010443;28;20921;-54
2023/12/13 05:08:52;;;;;;;19.77;14.47;;;5.90;99.90;;;;;;5010188;28;20249;-54
2023/12/13 05:11:21;;;;;;;20.80;13.80;;;6.00;99.90;;;;;;5013797;28;20230;-54
2023/12/13 05:13:47;;;;;;;17.63;14.10;;;5.90;99.90;;;;;;5014459;28;20225;-54
2023/12/13 05:16:12;;;;;;;16.20;12.93;;;5.90;99.90;;;;;;5013909;28;20693;-54
2023/12/13 05:18:38;;;;;;;18.57;14.37;;;5.90;99.90;;;;;;5014593;28;20198;-54
2023/12/13 05:21:04;;;;;;;22.93;13.70;;;6.10;99.90;;;;;;5013278;28;20236;-55
2023/12/13 05:23:29;;;;;;;16.60;13.60;;;6.00;99.90;;;;;;5016512;28;20221;-55
2023/12/13 05:25:55;;;;;;;20.10;12.43;;;5.90;99.90;;;;;;5013891;28;20238;-55
2023/12/13 05:28:20;;;;;;;21.50;14.70;;;5.90;99.90;;;;;;5014415;28;20628;-55
2023/12/13 05:30:46;;;;;;;24.90;13.97;;;6.00;99.90;;;;;;4996204;28;20269;-55
2023/12/13 05:33:12;;;;;;;19.63;14.70;;;6.00;99.90;;;;;;5015523;28;20199;-55
2023/12/13 05:35:37;;;;;;;21.87;15.00;;;6.00;99.90;;;;;;5013819;28;20211;-54
2023/12/13 05:38:03;;;;;;;26.30;15.07;;;6.10;99.90;;;;;;5013778;28;20207;-54
2023/12/13 05:40:31;;;;;;;20.77;13.70;;;5.90;99.90;;;;;;5013549;28;20206;-55
2023/12/13 05:42:57;;;;;;;19.27;14.73;;;5.80;99.90;;;;;;5013515;28;20195;-54
2023/12/13 05:45:23;;;;;;;23.67;15.33;;;5.90;99.90;;;;;;5011164;28;20199;-55
2023/12/13 05:47:48;;;;;;;21.10;14.10;;;5.80;99.90;;;;;;5013759;28;20354;-56
2023/12/13 05:50:15;;;;;;;17.97;13.93;;;5.70;99.90;;;;;;4994227;28;20223;-56
2023/12/13 05:52:41;;;;;;;24.23;14.90;;;5.80;99.90;;;;;;5014143;28;20207;-55
2023/12/13 05:55:07;;;;;;;19.47;14.07;;;5.90;99.90;;;;;;5013568;28;20218;-54
2023/12/13 05:57:32;;;;;;;23.37;15.13;;;5.90;99.90;;;;;;4993011;28;20210;-54
2023/12/13 05:59:58;;;;;;;21.00;15.80;;;5.80;99.90;;;;;;5013116;28;20207;-55
2023/12/13 06:02:24;;;;;;;20.57;14.83;;;5.80;99.90;;;;;;5013021;28;20212;-55
2023/12/13 06:04:51;;;;;;;23.77;15.20;;;5.90;99.90;;;;;;5013314;28;20337;-53
2023/12/13 06:07:17;;;;;;;21.43;15.20;;;5.90;99.90;;;;;;4992855;28;20314;-55
2023/12/13 06:09:42;;;;;;;23.03;16.13;;;6.00;99.90;;;;;;5012572;28;20540;-55
2023/12/13 06:12:08;;;;;;;23.83;16.57;;;6.00;99.90;;;;;;5012611;28;20200;-56
2023/12/13 06:14:34;;;;;;;19.17;15.93;;;5.80;99.90;;;;;;5013261;28;21003;-55
2023/12/13 06:16:59;;;;;;;24.40;15.43;;;5.70;99.90;;;;;;5012930;28;20216;-55
2023/12/13 06:19:29;;;;;;;20.67;14.63;;;5.80;99.90;;;;;;5012923;28;20192;-56
2023/12/13 06:21:57;;;;;;;19.17;15.40;;;5.90;99.90;;;;;;5012738;28;20971;-60
2023/12/13 06:24:22;;;;;;;20.97;14.97;;;5.90;99.90;;;;;;5007645;28;20237;-59
2023/12/13 06:26:48;;;;;;;21.73;14.97;;;5.90;99.90;;;;;;5014656;28;20235;-55
2023/12/13 06:29:14;;;;;;;19.80;14.60;;;6.00;99.90;;;;;;5012358;28;20258;-56
2023/12/13 06:31:40;;;;;;;18.77;13.97;;;5.90;99.90;;;;;;5012261;28;20207;-55
2023/12/13 06:34:05;;;;;;;17.80;14.33;;;6.00;99.90;;;;;;5012476;28;20203;-56
2023/12/13 06:36:31;;;;;;;17.70;14.23;;;6.00;99.90;;;;;;4994635;28;20506;-55
2023/12/13 06:38:57;;;;;;;19.37;15.00;;;6.10;99.90;;;;;;5012588;28;20685;-56
2023/12/13 06:41:22;;;;;;;20.17;14.73;;;6.10;99.90;;;;;;5014109;28;20312;-56
2023/12/13 06:43:48;;;;;;;17.27;14.17;;;6.20;99.90;;;;;;4990273;28;20199;-55
2023/12/13 06:46:13;;;;;;;18.03;14.27;;;6.10;99.90;;;;;;5012362;28;20195;-54
2023/12/13 06:48:39;;;;;;;19.60;13.73;;;6.10;99.90;;;;;;4990465;28;20689;-55
2023/12/13 06:51:06;;;;;;;18.37;13.50;;;6.00;99.90;;;;;;4990551;28;20227;-55
2023/12/13 06:53:33;;;;;;;17.90;13.80;;;5.90;99.90;;;;;;5012252;28;20626;-55
2023/12/13 06:55:59;;;;;;;15.87;13.30;;;6.00;99.90;;;;;;5016595;28;20610;-55
2023/12/13 06:58:25;;;;;;;17.20;12.70;;;6.00;99.90;;;;;;4994458;28;20677;-56
2023/12/13 07:00:51;;;;;;;17.10;12.07;;;6.00;99.90;;;;;;5013976;28;20199;-54
2023/12/13 07:03:16;;;;;;;17.87;12.27;;;6.00;99.90;;;;;;5011910;28;20195;-54
2023/12/13 07:05:42;;;;;;;13.73;10.73;;;6.00;99.90;;;;;;4990114;28;20202;-73
2023/12/13 07:08:08;;;;;;;14.43;11.47;;;6.00;99.90;;;;;;5011371;28;20223;-63
2023/12/13 07:10:33;;;;;;;12.90;11.03;;;6.00;99.90;;;;;;4994986;28;20250;-62
2023/12/13 07:12:59;;;;;;;16.77;11.07;;;6.10;99.90;;;;;;5011630;28;20214;-62
2023/12/13 07:15:24;;;;;;;14.53;12.03;;;6.10;99.90;;;;;;5013527;28;20210;-54
2023/12/13 07:17:50;;;;;;;16.00;11.90;;;6.20;99.90;;;;;;5011590;28;20219;-54
2023/12/13 07:20:17;;;;;;;12.63;9.87;;;6.00;99.90;;;;;;5011672;28;20283;-56
2023/12/13 07:22:43;;;;;;;12.40;11.00;;;6.20;99.90;;;;;;5011499;28;20790;-55
2023/12/13 07:25:09;;;;;;;11.90;10.23;;;6.10;99.90;;;;;;5011972;28;20215;-54
2023/12/13 07:27:35;;;;;;;13.70;10.07;;;6.10;99.90;;;;;;5011535;28;20245;-54
2023/12/13 07:30:00;;;;;;;12.93;10.83;;;6.20;99.90;;;;;;5013489;28;20304;-57
2023/12/13 07:32:26;;;;;;;11.60;9.97;;;6.30;99.90;;;;;;5011449;28;20653;-56
2023/12/13 07:34:51;;;;;;;14.10;10.70;;;6.30;99.90;;;;;;4992669;28;20290;-56
2023/12/13 07:37:17;;;;;;;11.40;10.20;;;6.40;99.90;;;;;;5007369;28;20238;-58
2023/12/13 07:39:42;;;;;;;12.17;9.63;;;6.10;99.90;;;;;;4993365;28;20200;-56
2023/12/13 07:42:08;;;;;;;13.20;9.27;;;6.20;99.90;;;;;;5011232;28;20841;-74
2023/12/13 07:44:34;;;;;;;10.63;9.53;;;6.20;99.90;;;;;;4996015;28;20195;-55
2023/12/13 07:47:00;;;;;;;13.20;10.53;;;6.30;99.90;;;;;;5011190;28;20206;-55
2023/12/13 07:49:29;;;;;;;9.63;8.63;;;6.20;99.90;;;;;;5011766;28;20992;-56
2023/12/13 07:51:55;;;;;;;12.23;10.00;;;6.20;99.90;;;;;;5011433;28;20937;-55
2023/12/13 07:54:21;;;;;;;13.03;9.83;;;6.30;99.90;;;;;;5011075;28;20199;-56
2023/12/13 07:56:49;;;;;;;11.63;10.03;;;6.30;99.90;;;;;;5011226;28;20200;-55
2023/12/13 07:59:15;;;;;;;11.40;10.03;;;6.40;99.90;;;;;;5011602;28;20211;-55
2023/12/13 08:01:40;;;;;;;13.53;9.80;;;6.50;99.90;;;;;;5013626;28;20206;-55
2023/12/13 08:04:06;;;;;;;13.17;10.40;;;6.50;99.90;;;;;;4993012;28;20566;-56
2023/12/13 08:06:32;;;;;;;11.70;10.07;;;6.50;99.90;;;;;;5011165;28;20208;-55
2023/12/13 08:08:57;;;;;;;15.07;11.43;;;6.40;99.90;;;;;;5010449;28;20230;-55
2023/12/13 08:11:23;;;;;;;13.40;10.73;;;6.30;99.90;;;;;;4993086;28;20227;-55
2023/12/13 08:13:49;;;;;;;12.67;10.73;;;6.00;99.90;;;;;;5010841;28;20551;-55
2023/12/13 08:16:14;;;;;;;13.10;11.83;;;6.10;99.90;;;;;;5010840;28;20278;-54
2023/12/13 08:18:40;;;;;;;14.17;12.70;;;6.30;99.90;;;;;;5012946;28;20999;-55
2023/12/13 08:21:06;;;;;;;11.37;9.87;;;6.30;99.90;;;;;;4993618;28;20297;-56
2023/12/13 08:23:32;;;;;;;12.80;11.47;;;6.40;99.90;;;;;;5011257;28;20210;-55
2023/12/13 08:25:58;;;;;;;13.87;10.90;;;6.30;99.90;;;;;;5011011;28;20632;-55
2023/12/13 08:28:23;;;;;;;14.97;11.37;;;6.30;99.90;;;;;;5011096;28;20200;-61
2023/12/13 08:30:49;;;;;;;15.40;12.57;;;6.20;99.90;;;;;;5006555;28;20372;-55
2023/12/13 08:33:14;;;;;;;14.77;12.60;;;6.30;99.90;;;;;;5007160;28;20238;-55
2023/12/13 08:35:40;;;;;;;16.73;13.43;;;6.30;99.90;;;;;;5006912;28;20202;-54
2023/12/13 08:38:05;;;;;;;16.57;14.07;;;6.10;99.90;;;;;;5010642;28;20201;-54
2023/12/13 08:40:31;;;;;;;17.30;13.73;;;6.10;99.90;;;;;;5011343;28;20452;-55
2023/12/13 08:42:56;;;;;;;18.77;14.87;;;6.20;99.90;;;;;;5010522;28;20227;-54
2023/12/13 08:45:22;;;;;;;18.27;14.53;;;6.20;99.90;;;;;;5013181;28;20206;-55
2023/12/13 08:47:47;;;;;;;19.63;15.63;;;6.10;99.90;;;;;;5014912;28;20213;-55
2023/12/13 08:50:14;;;;;;;18.70;15.03;;;6.10;99.90;;;;;;5014602;28;20219;-55
2023/12/13 08:52:40;;;;;;;21.13;15.93;;;6.10;99.90;;;;;;5014644;28;20204;-55
2023/12/13 08:55:08;;;;;;;21.80;16.93;;;6.10;99.90;;;;;;5013907;28;20195;-55
2023/12/13 08:57:34;;;;;;;19.53;15.80;;;6.30;99.90;;;;;;5014353;28;20722;-55
2023/12/13 09:00:00;;;;;;;22.20;16.40;;;6.30;99.90;;;;;;4996540;28;20530;-55
2023/12/13 09:02:25;;;;;;;19.20;16.30;;;6.40;99.90;;;;;;5016337;28;20900;-55
2023/12/13 09:04:51;;;;;;;22.00;17.00;;;6.50;99.90;;;;;;5014635;28;20550;-56
2023/12/13 09:07:17;;;;;;;22.70;16.63;;;6.50;99.90;;;;;;5014940;28;20705;-55
2023/12/13 09:09:43;;;;;;;23.80;18.50;;;6.50;99.90;;;;;;5014041;28;20235;-55
2023/12/13 09:12:08;;;;;;;27.23;19.73;;;6.60;99.90;;;;;;5013786;28;20203;-55
2023/12/13 09:14:34;;;;;;;24.43;19.80;;;6.50;99.90;;;;;;5014299;28;20199;-55
2023/12/13 09:17:01;;;;;;;24.53;19.13;;;6.40;99.90;;;;;;5016264;28;20576;-55
2023/12/13 09:19:26;;;;;;;27.20;18.83;;;6.40;99.90;;;;;;5013844;28;20210;-55
2023/12/13 09:21:52;;;;;;;23.83;18.20;;;6.20;99.90;;;;;;5013855;28;20673;-56
2023/12/13 09:24:17;;;;;;;25.57;19.70;;;6.20;99.90;;;;;;5014220;28;20268;-56
2023/12/13 09:26:43;;;;;;;24.77;18.67;;;6.20;99.90;;;;;;5013931;28;20664;-55
2023/12/13 09:29:09;;;;;;;32.23;20.50;;;6.30;99.90;;;;;;4995931;28;20215;-57
2023/12/13 09:31:35;;;;;;;29.30;20.77;;;6.20;99.90;;;;;;5014271;28;20200;-56
2023/12/13 09:34:02;;;;;;;26.17;19.27;;;6.30;99.90;;;;;;5016389;28;20195;-56
2023/12/13 09:36:27;;;;;;;30.83;20.80;;;6.40;99.90;;;;;;5014092;28;20187;-57
2023/12/13 09:38:53;;;;;;;28.17;19.90;;;6.50;99.90;;;;;;4996664;28;20576;-56
2023/12/13 09:41:25;;;;;;;29.07;19.90;;;6.50;99.90;;;;;;4996341;28;20665;-55
2023/12/13 09:43:50;;;;;;;26.37;19.97;;;6.50;99.90;;;;;;4993767;28;20204;-55
2023/12/13 09:46:18;;;;;;;26.50;19.47;;;6.40;99.90;;;;;;5017231;28;20573;-54
2023/12/13 09:48:44;;;;;;;29.03;20.40;;;6.40;99.90;;;;;;5021873;28;20255;-54
2023/12/13 09:51:11;;;;;;;28.10;20.20;;;6.40;99.90;;;;;;5022561;28;20601;-54
2023/12/13 09:53:39;;;;;;;29.30;21.17;;;6.50;99.90;;;;;;5023351;28;20191;-55
2023/12/13 09:56:08;;;;;;;29.03;21.00;;;6.50;99.90;;;;;;5022195;28;20200;-55
2023/12/13 09:58:37;;;;;;;29.60;21.30;;;6.50;99.90;;;;;;5009973;28;20616;-55
2023/12/13 10:01:10;;;;;;;31.60;21.13;;;6.60;99.90;;;;;;5013667;28;20207;-55
2023/12/13 10:03:39;;;;;;;30.27;21.70;;;6.60;99.90;;;;;;5023149;28;20211;-55
2023/12/13 10:06:08;;;;;;;43.20;26.83;;;6.50;99.90;;;;;;5022772;28;20196;-55
2023/12/13 10:08:35;;;;;;;27.83;21.17;;;6.50;99.90;;;;;;5022936;28;20314;-55
2023/12/13 10:11:02;;;;;;;28.83;19.93;;;6.30;99.90;;;;;;5022668;28;20208;-55
2023/12/13 10:13:28;;;;;;;29.40;20.50;;;6.30;99.90;;;;;;5023232;28;20211;-56
2023/12/13 10:15:53;;;;;;;41.47;27.47;;;6.40;99.90;;;;;;5020850;28;20952;-56
2023/12/13 10:18:19;;;;;;;28.60;19.50;;;6.50;99.90;;;;;;5023769;28;20579;-55
2023/12/13 10:20:45;;;;;;;27.87;19.47;;;6.60;99.90;;;;;;5004560;28;20280;-55
2023/12/13 10:23:11;;;;;;;26.50;19.60;;;6.40;99.90;;;;;;5022924;28;20241;-55
2023/12/13 10:25:37;;;;;;;27.87;22.03;;;6.50;99.90;;;;;;5013591;28;20203;-56
2023/12/13 10:28:04;;;;;;;29.20;22.43;;;6.50;99.90;;;;;;5022865;28;20183;-55
2023/12/13 10:30:30;;;;;;;30.03;20.90;;;6.50;99.90;;;;;;5022318;28;20230;-55
2023/12/13 10:32:55;;;;;;;31.60;21.03;;;6.60;99.90;;;;;;5022843;28;20305;-56
2023/12/13 10:35:22;;;;;;;27.63;19.97;;;6.60;99.90;;;;;;5022392;28;20222;-55
2023/12/13 10:37:48;;;;;;;29.37;20.60;;;6.80;99.90;;;;;;5023612;28;20174;-54
2023/12/13 10:40:17;;;;;;;35.57;23.53;;;6.80;99.90;;;;;;5005651;28;20563;-55
2023/12/13 10:42:45;;;;;;;30.87;20.50;;;6.70;99.90;;;;;;5022356;28;20198;-55
2023/12/13 10:45:12;;;;;;;37.27;24.67;;;6.70;99.90;;;;;;5017227;28;20213;-55
2023/12/13 10:47:44;;;;;;;30.17;20.57;;;6.90;99.90;;;;;;5022837;28;20207;-55
2023/12/13 10:50:10;;;;;;;34.80;22.87;;;6.90;99.90;;;;;;5004035;28;20250;-55
2023/12/13 10:52:38;;;;;;;28.33;19.87;;;6.90;99.90;;;;;;5022557;28;20195;-55
2023/12/13 10:55:09;;;;;;;28.40;20.57;;;7.00;99.90;;;;;;5011700;28;20544;-55
2023/12/13 10:57:37;;;;;;;29.93;20.20;;;7.00;99.90;;;;;;5021223;28;20209;-56
2023/12/13 11:00:05;;;;;;;26.60;20.60;;;6.80;99.90;;;;;;5022120;28;20556;-55
2023/12/13 11:02:41;;;;;;;30.60;20.27;;;6.70;99.90;;;;;;5022352;28;20225;-55
2023/12/13 11:05:07;;;;;;;30.43;23.30;;;6.80;99.90;;;;;;5004351;28;20240;-56
2023/12/13 11:07:45;;;;;;;28.73;20.73;;;6.70;99.90;;;;;;5001779;28;20188;-55
2023/12/13 11:10:13;;;;;;;32.00;22.07;;;6.80;99.90;;;;;;5003319;28;20301;-56
2023/12/13 11:12:49;;;;;;;33.20;21.57;;;6.80;99.90;;;;;;5022224;28;20561;-55
2023/12/13 11:15:16;;;;;;;27.60;20.30;;;6.90;99.90;;;;;;5002062;28;20202;-55
2023/12/13 11:17:54;;;;;;;24.03;18.67;;;6.90;99.90;;;;;;5015908;28;20188;-55
2023/12/13 11:20:20;;;;;;;26.73;20.00;;;6.80;99.90;;;;;;5020619;28;20245;-56
2023/12/13 11:22:50;;;;;;;29.20;21.00;;;6.90;99.90;;;;;;5022209;28;20603;-55
2023/12/13 11:25:17;;;;;;;28.37;20.43;;;7.00;99.90;;;;;;5021806;28;20290;-55
2023/12/13 11:27:53;;;;;;;27.33;19.97;;;6.90;99.90;;;;;;5022015;28;20188;-56
2023/12/13 11:30:21;;;;;;;25.57;19.43;;;6.90;99.90;;;;;;5012891;28;20212;-56
2023/12/13 11:32:47;;;;;;;28.43;19.97;;;6.80;99.90;;;;;;5022073;28;20681;-55
2023/12/13 11:35:15;;;;;;;27.50;19.90;;;7.00;99.90;;;;;;5021274;28;20203;-56
2023/12/13 11:37:42;;;;;;;25.87;19.27;;;7.00;99.90;;;;;;5021779;28;20184;-56
2023/12/13 11:40:09;;;;;;;27.23;20.10;;;6.90;99.90;;;;;;5013709;28;20207;-56
2023/12/13 11:42:34;;;;;;;28.40;21.97;;;6.80;99.90;;;;;;5019498;28;20228;-56
2023/12/13 11:45:00;;;;;;;26.13;17.80;;;7.00;99.90;;;;;;5019819;28;20187;-56
2023/12/13 11:47:25;;;;;;;27.97;20.53;;;7.00;99.90;;;;;;5015625;28;20523;-56
2023/12/13 11:49:51;;;;;;;27.30;19.30;;;7.10;99.90;;;;;;5020591;28;20900;-57
2023/12/13 11:52:18;;;;;;;25.63;19.07;;;7.10;99.90;;;;;;5021438;28;20692;-65
2023/12/13 11:54:44;;;;;;;32.03;19.63;;;7.00;99.90;;;;;;5021439;28;20184;-66
2023/12/13 11:57:14;;;;;;;22.30;18.10;;;6.90;99.90;;;;;;5020525;28;20574;-56
2023/12/13 11:59:41;;;;;;;25.77;19.30;;;7.00;99.90;;;;;;5001493;28;20275;-55
2023/12/13 12:02:08;;;;;;;22.00;18.77;;;6.90;99.90;;;;;;5020342;28;20204;-56
2023/12/13 12:04:34;;;;;;;24.27;18.00;;;7.10;99.90;;;;;;5021156;28;20203;-56
2023/12/13 12:07:00;;;;;;;23.97;18.13;;;7.10;99.90;;;;;;5020846;28;20237;-56
2023/12/13 12:09:25;;;;;;;24.90;19.13;;;7.20;99.90;;;;;;5020731;28;20231;-56
2023/12/13 12:11:57;;;;;;;25.93;18.13;;;7.30;99.90;;;;;;5013427;28;20203;-55
2023/12/13 12:14:27;;;;;;;25.80;18.50;;;7.30;99.90;;;;;;5007075;28;20583;-66
2023/12/13 12:16:52;;;;;;;26.50;18.33;;;7.30;99.90;;;;;;5010487;28;20188;-56
2023/12/13 12:19:18;;;;;;;23.67;18.77;;;7.30;99.90;;;;;;5011265;28;20210;-56
2023/12/13 12:21:44;;;;;;;24.30;18.67;;;7.30;99.90;;;;;;5010661;28;20203;-55
2023/12/13 12:24:13;;;;;;;25.90;18.63;;;7.30;99.90;;;;;;4993033;28;20214;-56
2023/12/13 12:26:38;;;;;;;24.30;17.97;;;7.40;99.90;;;;;;5011265;28;20218;-63
2023/12/13 12:29:04;;;;;;;27.57;17.97;;;7.30;99.90;;;;;;5008938;28;20207;-65
2023/12/13 12:31:30;;;;;;;28.10;18.27;;;7.20;99.90;;;;;;5011289;28;20677;-56
2023/12/13 12:33:57;;;;;;;25.13;19.10;;;7.20;99.90;;;;;;5011334;28;20849;-55